createdAt,value
2018-12-17T00:01:57.337Z,38.17
2018-12-17T00:04:29.907Z,41.63
2018-12-17T00:07:02.415Z,39.07
2018-12-17T00:09:33.011Z,40.97
2018-12-17T00:12:03.408Z,39.57
2018-12-17T00:14:34.066Z,44.13
2018-12-17T00:17:05.247Z,45.70
2018-12-17T00:19:35.606Z,40.63
2018-12-17T00:22:06.199Z,45.07
2018-12-17T00:24:36.628Z,44.07
2018-12-17T00:27:07.053Z,38.03
2018-12-17T00:29:37.462Z,41.27
2018-12-17T00:32:08.031Z,39.00
2018-12-17T00:34:38.372Z,37.20
2018-12-17T00:37:08.698Z,36.50
2018-12-17T00:39:39.104Z,41.90
2018-12-17T00:42:09.457Z,37.30
2018-12-17T00:44:39.963Z,36.77
2018-12-17T00:47:10.379Z,38.93
2018-12-17T00:49:40.758Z,35.03
2018-12-17T00:52:11.068Z,33.73
2018-12-17T00:54:41.470Z,34.30
2018-12-17T00:57:11.804Z,32.33
2018-12-17T00:59:42.323Z,35.80
2018-12-17T01:02:12.687Z,36.87
2018-12-17T01:04:43.067Z,36.00
2018-12-17T01:07:13.439Z,36.03
2018-12-17T01:09:43.756Z,36.47
2018-12-17T01:12:14.133Z,32.80
2018-12-17T01:14:44.503Z,35.47
2018-12-17T01:17:14.958Z,40.60
2018-12-17T01:19:45.244Z,40.00
2018-12-17T01:22:15.793Z,45.87
2018-12-17T01:24:46.145Z,41.60
2018-12-17T01:27:16.572Z,45.13
2018-12-17T01:29:46.838Z,41.07
2018-12-17T01:32:17.154Z,43.07
2018-12-17T01:34:47.526Z,45.17
2018-12-17T01:37:17.910Z,44.43
2018-12-17T01:39:48.435Z,42.53
2018-12-17T01:42:18.887Z,45.37
2018-12-17T01:44:49.262Z,45.83
2018-12-17T01:47:19.703Z,42.80
2018-12-17T01:49:49.979Z,46.60
2018-12-17T01:52:20.393Z,43.63
2018-12-17T01:54:50.766Z,42.03
2018-12-17T01:57:21.275Z,38.53
2018-12-17T01:59:51.618Z,38.00
2018-12-17T02:02:21.953Z,37.77
2018-12-17T02:04:52.540Z,40.93
2018-12-17T02:07:23.035Z,38.87
2018-12-17T02:09:53.682Z,40.23
2018-12-17T02:12:24.042Z,40.27
2018-12-17T02:14:54.400Z,37.07
2018-12-17T02:17:24.882Z,37.43
2018-12-17T02:19:55.549Z,38.80
2018-12-17T02:22:25.913Z,36.43
2018-12-17T02:24:56.324Z,33.13
2018-12-17T02:27:26.810Z,35.83
2018-12-17T02:29:57.085Z,38.67
2018-12-17T02:32:27.667Z,35.40
2018-12-17T02:34:58.371Z,30.87
2018-12-17T02:37:28.780Z,28.83
2018-12-17T02:39:59.460Z,26.70
2018-12-17T02:42:29.980Z,31.80
2018-12-17T02:45:00.562Z,30.50
2018-12-17T02:47:30.930Z,34.70
2018-12-17T02:50:01.513Z,30.07
2018-12-17T02:52:31.933Z,32.80
2018-12-17T02:55:02.380Z,32.17
2018-12-17T02:57:32.834Z,35.73
2018-12-17T03:00:03.277Z,38.27
2018-12-17T03:02:34.642Z,36.07
2018-12-17T03:05:05.703Z,35.13
2018-12-17T03:07:36.029Z,41.10
2018-12-17T03:10:07.483Z,39.10
2018-12-17T03:12:37.798Z,37.37
2018-12-17T03:15:08.396Z,39.90
2018-12-17T03:17:38.786Z,40.10
2018-12-17T03:20:09.092Z,37.43
2018-12-17T03:22:39.403Z,37.50
2018-12-17T03:25:09.759Z,38.53
2018-12-17T03:27:40.145Z,36.20
2018-12-17T03:30:10.645Z,43.87
2018-12-17T03:32:40.989Z,41.10
2018-12-17T03:35:11.325Z,41.03
2018-12-17T03:37:41.744Z,48.77
2018-12-17T03:40:12.171Z,48.57
2018-12-17T03:42:42.592Z,48.43
2018-12-17T03:45:12.897Z,51.83
2018-12-17T03:47:43.196Z,48.63
2018-12-17T03:50:16.118Z,49.10
2018-12-17T03:52:46.418Z,49.97
2018-12-17T03:55:16.814Z,51.83
2018-12-17T03:57:47.062Z,50.63
2018-12-17T04:00:17.445Z,58.10
2018-12-17T04:02:48.225Z,70.13
2018-12-17T04:05:18.821Z,65.97
2018-12-17T04:07:49.461Z,82.00
2018-12-17T04:10:19.858Z,88.33
2018-12-17T04:12:51.055Z,100.37
2018-12-17T04:15:21.699Z,95.53
2018-12-17T04:17:52.055Z,78.27
2018-12-17T04:20:22.542Z,81.57
2018-12-17T04:22:52.930Z,100.53
2018-12-17T04:25:23.506Z,88.70
2018-12-17T04:27:53.878Z,91.90
2018-12-17T04:30:27.318Z,104.83
2018-12-17T04:32:57.682Z,134.73
2018-12-17T04:35:28.024Z,118.00
2018-12-17T04:37:58.444Z,107.63
2018-12-17T04:40:29.173Z,103.17
2018-12-17T04:42:59.714Z,100.53
2018-12-17T04:45:30.037Z,89.97
2018-12-17T04:48:00.396Z,113.97
2018-12-17T04:50:30.990Z,116.60
2018-12-17T04:53:01.442Z,125.80
2018-12-17T04:55:31.821Z,133.83
2018-12-17T04:58:02.231Z,130.83
2018-12-17T05:00:32.649Z,125.43
2018-12-17T05:03:03.359Z,100.90
2018-12-17T05:05:33.752Z,96.17
2018-12-17T05:08:04.175Z,70.73
2018-12-17T05:10:35.050Z,71.30
2018-12-17T05:13:05.684Z,65.30
2018-12-17T05:15:36.365Z,62.73
2018-12-17T05:18:07.085Z,64.30
2018-12-17T05:20:37.613Z,62.13
2018-12-17T05:23:08.243Z,65.00
2018-12-17T05:25:39.097Z,57.37
2018-12-17T05:28:09.546Z,51.80
2018-12-17T05:30:39.935Z,47.70
2018-12-17T05:33:10.747Z,48.97
2018-12-17T05:35:42.345Z,50.07
2018-12-17T05:38:12.759Z,67.00
2018-12-17T05:40:43.108Z,67.17
2018-12-17T05:43:13.839Z,67.03
2018-12-17T05:45:44.215Z,77.43
2018-12-17T05:48:14.835Z,84.23
2018-12-17T05:50:45.239Z,73.03
2018-12-17T05:53:15.630Z,82.63
2018-12-17T05:55:45.973Z,68.33
2018-12-17T05:58:16.317Z,71.50
2018-12-17T06:00:46.765Z,94.30
2018-12-17T06:03:17.385Z,82.87
2018-12-17T06:05:48.192Z,90.93
2018-12-17T06:08:18.905Z,77.63
2018-12-17T06:10:49.540Z,73.57
2018-12-17T06:13:20.083Z,87.87
2018-12-17T06:15:50.777Z,74.40
2018-12-17T06:18:21.537Z,77.00
2018-12-17T06:20:52.542Z,76.17
2018-12-17T06:23:22.983Z,86.83
2018-12-17T06:25:53.339Z,85.27
2018-12-17T06:28:23.854Z,89.63
2018-12-17T06:30:54.675Z,89.50
2018-12-17T06:33:25.020Z,81.57
2018-12-17T06:35:55.653Z,76.87
2018-12-17T06:38:26.292Z,84.47
2018-12-17T06:40:56.602Z,93.60
2018-12-17T06:43:27.315Z,123.20
2018-12-17T06:45:57.697Z,106.20
2018-12-17T06:48:28.349Z,96.00
2018-12-17T06:50:59.323Z,104.83
2018-12-17T06:53:29.905Z,87.70
2018-12-17T06:56:00.311Z,80.03
2018-12-17T06:58:31.316Z,105.47
2018-12-17T07:01:01.725Z,100.63
2018-12-17T07:03:32.346Z,84.07
2018-12-17T07:06:02.753Z,78.87
2018-12-17T07:08:33.293Z,91.50
2018-12-17T07:11:03.976Z,83.17
2018-12-17T07:13:34.330Z,86.97
2018-12-17T07:16:04.773Z,83.73
2018-12-17T07:18:35.219Z,74.43
2018-12-17T07:21:05.642Z,73.93
2018-12-17T07:23:35.977Z,70.60
2018-12-17T07:26:06.400Z,70.47
2018-12-17T07:28:37.045Z,71.83
2018-12-17T07:31:07.514Z,69.83
2018-12-17T07:33:37.908Z,68.33
2018-12-17T07:36:08.233Z,64.27
2018-12-17T07:38:38.581Z,63.67
2018-12-17T07:41:09.201Z,61.87
2018-12-17T07:43:46.102Z,71.53
2018-12-17T07:46:16.518Z,107.20
2018-12-17T07:48:46.930Z,120.37
2018-12-17T07:51:17.305Z,86.67
2018-12-17T07:53:47.680Z,95.40
2018-12-17T07:56:18.052Z,100.43
2018-12-17T07:58:48.381Z,101.93
2018-12-17T08:01:18.689Z,82.13
2018-12-17T08:03:49.135Z,79.23
2018-12-17T08:06:19.493Z,85.77
2018-12-17T08:08:51.117Z,81.50
2018-12-17T08:11:21.473Z,77.67
2018-12-17T08:13:51.754Z,81.87
2018-12-17T08:16:22.177Z,78.40
2018-12-17T08:18:52.724Z,75.63
2018-12-17T08:21:23.093Z,74.63
2018-12-17T08:23:53.416Z,88.33
2018-12-17T08:26:23.817Z,71.73
2018-12-17T08:28:54.156Z,71.87
2018-12-17T08:31:24.445Z,77.13
2018-12-17T08:33:54.781Z,76.43
2018-12-17T08:36:25.157Z,73.27
2018-12-17T08:38:55.523Z,77.90
2018-12-17T08:41:25.894Z,77.67
2018-12-17T08:43:56.688Z,73.47
2018-12-17T08:46:27.074Z,65.03
2018-12-17T08:48:57.477Z,63.10
2018-12-17T08:51:27.893Z,65.10
2018-12-17T08:53:58.294Z,65.47
2018-12-17T08:56:28.729Z,66.33
2018-12-17T08:58:59.222Z,62.30
2018-12-17T09:01:29.706Z,68.23
2018-12-17T09:04:00.178Z,62.27
2018-12-17T09:06:30.560Z,69.47
2018-12-17T09:09:00.874Z,89.03
2018-12-17T09:11:31.314Z,69.20
2018-12-17T09:14:01.865Z,84.60
2018-12-17T09:16:33.350Z,77.50
2018-12-17T09:19:04.013Z,88.73
2018-12-17T09:21:34.510Z,80.20
2018-12-17T09:24:05.054Z,81.87
2018-12-17T09:26:35.386Z,82.33
2018-12-17T09:29:05.910Z,83.27
2018-12-17T09:31:36.223Z,80.60
2018-12-17T09:34:06.834Z,80.37
2018-12-17T09:36:37.856Z,83.57
2018-12-17T09:39:09.229Z,79.90
2018-12-17T09:41:41.718Z,77.10
2018-12-17T09:44:12.177Z,68.67
2018-12-17T09:46:42.645Z,73.97
2018-12-17T09:49:13.167Z,71.80
2018-12-17T09:51:43.789Z,70.30
2018-12-17T09:54:14.228Z,75.33
2018-12-17T09:56:44.550Z,76.37
2018-12-17T09:59:14.966Z,69.00
2018-12-17T10:01:47.508Z,74.90
2018-12-17T10:04:17.794Z,81.83
2018-12-17T10:06:48.242Z,79.80
2018-12-17T10:09:18.630Z,83.97
2018-12-17T10:11:49.038Z,86.90
2018-12-17T10:14:19.395Z,81.83
2018-12-17T10:16:49.848Z,76.57
2018-12-17T10:19:20.472Z,89.13
2018-12-17T10:21:51.041Z,70.17
2018-12-17T10:24:21.555Z,82.53
2018-12-17T10:26:52.273Z,102.67
2018-12-17T10:29:22.597Z,106.77
2018-12-17T10:31:52.949Z,87.93
2018-12-17T10:34:23.554Z,113.33
2018-12-17T10:36:53.925Z,75.70
2018-12-17T10:39:24.309Z,80.60
2018-12-17T10:41:54.644Z,67.03
2018-12-17T10:44:28.066Z,64.90
2018-12-17T10:46:58.682Z,52.77
2018-12-17T10:49:29.262Z,44.80
2018-12-17T10:51:59.628Z,47.20
2018-12-17T10:54:29.946Z,57.57
2018-12-17T10:57:00.346Z,53.20
2018-12-17T10:59:30.754Z,58.03
2018-12-17T11:02:14.320Z,69.60
2018-12-17T11:04:48.774Z,62.77
2018-12-17T11:07:20.402Z,44.97
2018-12-17T11:09:50.843Z,47.30
2018-12-17T11:12:21.268Z,47.60
2018-12-17T11:14:51.592Z,55.77
2018-12-17T11:17:22.038Z,64.73
2018-12-17T11:19:52.405Z,82.00
2018-12-17T11:22:23.114Z,66.13
2018-12-17T11:24:53.749Z,74.93
2018-12-17T11:27:24.101Z,71.40
2018-12-17T11:29:54.530Z,92.97
2018-12-17T11:32:25.131Z,115.03
2018-12-17T11:34:55.685Z,97.40
2018-12-17T11:37:26.313Z,77.77
2018-12-17T11:39:57.021Z,75.40
2018-12-17T11:42:27.555Z,81.30
2018-12-17T11:44:58.393Z,76.07
2018-12-17T11:47:35.416Z,76.97
2018-12-17T11:50:06.546Z,68.60
2018-12-17T11:52:36.906Z,64.07
2018-12-17T11:55:07.817Z,65.77
2018-12-17T11:57:50.753Z,65.17
2018-12-17T12:00:25.594Z,66.53
2018-12-17T12:02:59.045Z,75.27
2018-12-17T12:05:28.610Z,90.13
2018-12-17T12:07:59.068Z,92.07
2018-12-17T12:10:29.377Z,94.43
2018-12-17T12:12:59.732Z,94.90
2018-12-17T12:15:30.294Z,104.23
2018-12-17T12:18:00.873Z,91.73
2018-12-17T12:20:31.436Z,92.33
2018-12-17T12:23:02.130Z,78.07
2018-12-17T12:25:32.714Z,70.37
2018-12-17T12:28:03.116Z,79.47
2018-12-17T12:30:33.500Z,73.23
2018-12-17T12:33:04.206Z,81.23
2018-12-17T12:35:34.703Z,83.23
2018-12-17T12:38:05.164Z,76.03
2018-12-17T12:40:35.821Z,69.90
2018-12-17T12:43:06.526Z,78.37
2018-12-17T12:45:36.930Z,86.27
2018-12-17T12:48:07.293Z,87.97
2018-12-17T12:50:37.741Z,83.07
2018-12-17T12:53:09.402Z,79.30
2018-12-17T12:55:39.859Z,85.67
2018-12-17T12:58:10.312Z,74.27
2018-12-17T13:00:40.752Z,69.77
2018-12-17T13:03:11.543Z,79.20
2018-12-17T13:05:42.030Z,85.13
2018-12-17T13:08:12.520Z,81.53
2018-12-17T13:10:42.971Z,84.43
2018-12-17T13:13:13.488Z,79.73
2018-12-17T13:15:43.784Z,90.87
2018-12-17T13:18:14.208Z,90.00
2018-12-17T13:20:44.668Z,95.47
2018-12-17T13:23:15.132Z,89.37
2018-12-17T13:25:49.055Z,94.23
2018-12-17T13:28:19.444Z,91.30
2018-12-17T13:30:49.763Z,94.70
2018-12-17T13:33:20.363Z,84.07
2018-12-17T13:35:50.867Z,80.87
2018-12-17T13:38:21.496Z,94.23
2018-12-17T13:40:51.976Z,95.70
2018-12-17T13:43:22.429Z,110.70
2018-12-17T13:45:52.901Z,98.20
2018-12-17T13:48:23.287Z,87.90
2018-12-17T13:50:53.709Z,92.10
2018-12-17T13:53:29.140Z,89.47
2018-12-17T13:55:59.566Z,102.27
2018-12-17T13:58:29.992Z,83.97
2018-12-17T14:01:00.343Z,74.00
2018-12-17T14:03:30.974Z,87.73
2018-12-17T14:06:01.717Z,95.13
2018-12-17T14:08:32.195Z,125.87
2018-12-17T14:11:02.774Z,135.40
2018-12-17T14:13:34.556Z,148.07
2018-12-17T14:16:10.467Z,151.07
2018-12-17T14:18:46.042Z,112.17
2018-12-17T14:21:22.105Z,95.40
2018-12-17T14:23:52.633Z,83.57
2018-12-17T14:26:23.014Z,99.53
2018-12-17T14:28:53.531Z,108.87
2018-12-17T14:31:28.887Z,94.40
2018-12-17T14:33:56.753Z,89.23
2018-12-17T14:36:27.497Z,68.60
2018-12-17T14:38:57.986Z,76.83
2018-12-17T14:41:28.636Z,82.60
2018-12-17T14:44:03.289Z,79.93
2018-12-17T14:46:37.674Z,76.40
2018-12-17T14:49:08.262Z,74.13
2018-12-17T14:51:38.953Z,70.67
2018-12-17T14:54:10.429Z,58.00
2018-12-17T14:56:40.991Z,62.50
2018-12-17T14:59:12.004Z,62.37
2018-12-17T15:01:42.611Z,64.83
2018-12-17T15:04:13.160Z,65.80
2018-12-17T15:06:44.124Z,62.47
2018-12-17T15:09:15.101Z,60.00
2018-12-17T15:11:45.732Z,62.80
2018-12-17T15:14:16.421Z,62.43
2018-12-17T15:16:47.900Z,59.80
2018-12-17T15:19:18.641Z,64.60
2018-12-17T15:21:49.151Z,61.87
2018-12-17T15:24:20.167Z,90.90
2018-12-17T15:26:50.608Z,143.57
2018-12-17T15:29:21.179Z,82.23
2018-12-17T15:31:51.741Z,69.30
2018-12-17T15:34:22.188Z,74.10
2018-12-17T15:36:52.668Z,71.63
2018-12-17T15:39:23.206Z,70.20
2018-12-17T15:41:53.789Z,67.47
2018-12-17T15:44:24.257Z,72.47
2018-12-17T15:46:54.658Z,78.63
2018-12-17T15:49:25.203Z,76.83
2018-12-17T15:51:55.776Z,70.83
2018-12-17T15:54:26.330Z,67.30
2018-12-17T15:56:57.089Z,66.00
2018-12-17T15:59:28.807Z,69.70
2018-12-17T16:01:59.334Z,72.73
2018-12-17T16:04:29.796Z,77.27
2018-12-17T16:07:00.508Z,64.93
2018-12-17T16:09:31.325Z,66.20
2018-12-17T16:12:01.800Z,64.33
2018-12-17T16:14:32.216Z,67.33
2018-12-17T16:17:02.713Z,66.80
2018-12-17T16:19:33.486Z,68.57
2018-12-17T16:22:04.062Z,87.47
2018-12-17T16:24:34.577Z,75.83
2018-12-17T16:27:05.363Z,68.60
2018-12-17T16:29:35.872Z,70.93
2018-12-17T16:32:06.486Z,65.33
2018-12-17T16:34:37.123Z,68.57
2018-12-17T16:37:07.740Z,61.57
2018-12-17T16:39:38.484Z,66.67
2018-12-17T16:42:09.332Z,63.77
2018-12-17T16:44:41.168Z,64.23
2018-12-17T16:47:12.077Z,57.37
2018-12-17T16:49:43.369Z,62.53
2018-12-17T16:52:16.175Z,63.13
2018-12-17T16:54:46.750Z,63.33
2018-12-17T16:57:17.317Z,70.90
2018-12-17T16:59:48.248Z,66.00
2018-12-17T17:02:19.109Z,62.43
2018-12-17T17:04:50.038Z,59.50
2018-12-17T17:07:22.213Z,64.97
2018-12-17T17:09:52.959Z,62.83
2018-12-17T17:12:23.521Z,73.40
2018-12-17T17:14:54.211Z,66.20
2018-12-17T17:17:24.881Z,66.03
2018-12-17T17:19:55.357Z,63.67
2018-12-17T17:22:26.081Z,82.90
2018-12-17T17:24:56.762Z,106.03
2018-12-17T17:27:27.345Z,122.27
2018-12-17T17:29:58.132Z,97.07
2018-12-17T17:32:29.052Z,85.30
2018-12-17T17:34:59.680Z,90.70
2018-12-17T17:37:31.632Z,77.17
2018-12-17T17:40:02.408Z,79.37
2018-12-17T17:42:33.917Z,80.63
2018-12-17T17:45:04.709Z,79.07
2018-12-17T17:47:35.265Z,82.93
2018-12-17T17:50:06.635Z,80.63
2018-12-17T17:52:37.185Z,84.07
2018-12-17T17:55:07.956Z,82.47
2018-12-17T17:57:38.637Z,86.60
2018-12-17T18:00:10.369Z,91.70
2018-12-17T18:02:41.115Z,97.87
2018-12-17T18:05:11.623Z,98.20
2018-12-17T18:07:42.526Z,105.30
2018-12-17T18:10:13.053Z,95.93
2018-12-17T18:12:43.845Z,93.83
2018-12-17T18:15:14.523Z,102.37
2018-12-17T18:17:45.079Z,91.20
2018-12-17T18:20:15.792Z,92.33
2018-12-17T18:22:46.425Z,100.37
2018-12-17T18:25:17.005Z,101.93
2018-12-17T18:27:47.768Z,95.17
2018-12-17T18:30:18.525Z,99.93
2018-12-17T18:32:49.362Z,92.50
2018-12-17T18:35:20.197Z,98.00
2018-12-17T18:37:51.078Z,83.60
2018-12-17T18:40:22.545Z,87.07
2018-12-17T18:42:53.282Z,86.07
2018-12-17T18:45:23.844Z,80.67
2018-12-17T18:47:54.550Z,84.67
2018-12-17T18:50:25.190Z,76.73
2018-12-17T18:52:55.806Z,83.90
2018-12-17T18:55:26.894Z,92.07
2018-12-17T18:57:57.457Z,83.90
2018-12-17T19:00:28.099Z,81.67
2018-12-17T19:02:58.797Z,75.07
2018-12-17T19:05:29.415Z,75.20
2018-12-17T19:08:00.355Z,84.33
2018-12-17T19:10:35.167Z,77.73
2018-12-17T19:13:05.838Z,79.50
2018-12-17T19:15:36.434Z,75.03
2018-12-17T19:18:07.094Z,84.27
2018-12-17T19:20:37.710Z,81.73
2018-12-17T19:23:09.265Z,83.60
2018-12-17T19:25:39.773Z,86.37
2018-12-17T19:28:10.605Z,85.20
2018-12-17T19:30:41.218Z,83.27
2018-12-17T19:33:11.728Z,78.97
2018-12-17T19:35:42.374Z,78.57
2018-12-17T19:38:13.103Z,87.20
2018-12-17T19:40:43.662Z,88.80
2018-12-17T19:43:14.377Z,93.37
2018-12-17T19:45:45.114Z,92.57
2018-12-17T19:48:15.657Z,96.87
2018-12-17T19:50:46.148Z,102.77
2018-12-17T19:53:16.873Z,110.43
2018-12-17T19:55:47.437Z,123.33
2018-12-17T19:58:18.358Z,147.27
2018-12-17T20:00:48.949Z,133.10
2018-12-17T20:03:19.979Z,146.37
2018-12-17T20:05:51.130Z,133.50
2018-12-17T20:08:21.714Z,116.13
2018-12-17T20:10:53.052Z,124.37
2018-12-17T20:13:23.642Z,134.50
2018-12-17T20:15:54.158Z,134.70
2018-12-17T20:18:24.979Z,127.07
2018-12-17T20:20:55.493Z,136.80
2018-12-17T20:23:26.052Z,130.07
2018-12-17T20:25:56.782Z,138.83
2018-12-17T20:28:27.388Z,138.20
2018-12-17T20:30:58.033Z,151.77
2018-12-17T20:33:28.606Z,140.63
2018-12-17T20:35:59.426Z,127.73
2018-12-17T20:38:30.469Z,118.00
2018-12-17T20:41:06.444Z,125.47
2018-12-17T20:43:37.557Z,132.17
2018-12-17T20:46:08.669Z,126.37
2018-12-17T20:48:40.325Z,125.77
2018-12-17T20:51:11.559Z,134.03
2018-12-17T20:53:42.796Z,145.53
2018-12-17T20:56:14.368Z,140.93
2018-12-17T20:58:45.428Z,122.57
2018-12-17T21:01:16.699Z,119.63
2018-12-17T21:03:48.042Z,116.10
2018-12-17T21:06:19.111Z,130.77
2018-12-17T21:08:50.858Z,109.37
2018-12-17T21:11:22.300Z,109.07
2018-12-17T21:13:53.673Z,105.17
2018-12-17T21:16:25.355Z,101.27
2018-12-17T21:18:55.875Z,96.17
2018-12-17T21:21:27.139Z,96.67
2018-12-17T21:24:05.073Z,96.43
2018-12-17T21:26:37.091Z,106.10
2018-12-17T21:29:09.618Z,95.27
2018-12-17T21:31:52.991Z,89.00
2018-12-17T21:34:25.327Z,81.73
2018-12-17T21:36:55.822Z,84.57
2018-12-17T21:39:26.289Z,79.77
2018-12-17T21:41:56.875Z,81.50
2018-12-17T21:44:27.233Z,68.43
2018-12-17T21:46:57.721Z,76.73
2018-12-17T21:49:28.153Z,79.20
2018-12-17T21:51:58.590Z,81.43
2018-12-17T21:54:28.979Z,86.90
2018-12-17T21:56:59.321Z,87.13
2018-12-17T21:59:29.747Z,87.67
2018-12-17T22:02:00.163Z,86.83
2018-12-17T22:04:30.626Z,92.73
2018-12-17T22:07:00.990Z,92.17
2018-12-17T22:09:31.354Z,91.30
2018-12-17T22:12:01.714Z,98.03
2018-12-17T22:14:32.116Z,91.67
2018-12-17T22:17:02.478Z,95.00
2018-12-17T22:19:32.882Z,91.00
2018-12-17T22:22:03.220Z,92.77
2018-12-17T22:24:33.786Z,92.53
2018-12-17T22:27:04.342Z,96.00
2018-12-17T22:29:34.767Z,93.53
2018-12-17T22:32:05.226Z,96.03
2018-12-17T22:34:36.696Z,99.60
2018-12-17T22:37:07.134Z,90.53
2018-12-17T22:39:37.618Z,86.83
2018-12-17T22:42:08.020Z,96.73
2018-12-17T22:44:38.458Z,102.23
2018-12-17T22:47:08.838Z,101.87
2018-12-17T22:49:39.280Z,104.50
2018-12-17T22:52:09.608Z,100.70
2018-12-17T22:54:39.981Z,101.60
2018-12-17T22:57:10.369Z,95.10
2018-12-17T22:59:40.700Z,107.73
2018-12-17T23:02:11.094Z,92.97
2018-12-17T23:04:41.682Z,104.07
2018-12-17T23:07:12.035Z,102.43
2018-12-17T23:09:53.011Z,99.63
2018-12-17T23:12:34.097Z,102.67
2018-12-17T23:15:14.985Z,94.33
2018-12-17T23:17:43.643Z,96.73
2018-12-17T23:20:15.182Z,91.60
2018-12-17T23:22:47.758Z,102.67
2018-12-17T23:25:22.206Z,99.57
2018-12-17T23:27:52.918Z,99.30
2018-12-17T23:30:23.973Z,97.50
2018-12-17T23:32:54.299Z,93.37
2018-12-17T23:35:24.597Z,96.60
2018-12-17T23:37:55.046Z,104.20
2018-12-17T23:40:25.380Z,105.67
2018-12-17T23:42:55.686Z,90.87
2018-12-17T23:45:26.081Z,109.43
2018-12-17T23:47:56.422Z,102.40
2018-12-17T23:50:26.817Z,101.83
2018-12-17T23:52:57.323Z,106.27
2018-12-17T23:55:27.689Z,109.20
2018-12-17T23:57:58.036Z,105.03
